createdAt,value
2023-03-19T00:00:36.871Z,11.18
2023-03-19T00:03:03.847Z,10.45
2023-03-19T00:05:30.688Z,7.95
2023-03-19T00:07:57.505Z,10.10
2023-03-19T00:10:24.333Z,11.20
2023-03-19T00:12:51.089Z,10.43
2023-03-19T00:15:17.983Z,11.05
2023-03-19T00:17:45.104Z,11.00
2023-03-19T00:20:14.993Z,10.60
2023-03-19T00:22:42.130Z,9.30
2023-03-19T00:25:10.115Z,8.82
2023-03-19T00:27:38.075Z,10.73
2023-03-19T00:30:09.090Z,12.32
2023-03-19T00:32:36.869Z,9.35
2023-03-19T00:35:06.389Z,9.52
2023-03-19T00:37:34.427Z,11.88
2023-03-19T00:40:01.785Z,9.80
2023-03-19T00:42:28.691Z,8.77
2023-03-19T00:44:55.901Z,8.93
2023-03-19T00:47:24.868Z,7.93
2023-03-19T00:49:51.627Z,11.75
2023-03-19T00:52:18.488Z,8.73
2023-03-19T00:54:45.412Z,10.65
2023-03-19T00:57:12.254Z,8.00
2023-03-19T00:59:39.079Z,11.90
2023-03-19T01:02:06.003Z,10.77
2023-03-19T01:04:33.658Z,8.38
2023-03-19T01:07:03.074Z,8.60
2023-03-19T01:09:30.123Z,11.50
2023-03-19T01:11:57.146Z,8.77
2023-03-19T01:14:24.320Z,7.90
2023-03-19T01:16:51.202Z,8.80
2023-03-19T01:19:17.980Z,7.45
2023-03-19T01:21:46.442Z,12.18
2023-03-19T01:24:16.884Z,7.88
2023-03-19T01:26:45.458Z,8.63
2023-03-19T01:29:21.449Z,8.98
2023-03-19T01:31:48.364Z,7.63
2023-03-19T01:34:37.534Z,5.97
2023-03-19T01:37:09.622Z,3.58
2023-03-19T01:39:37.633Z,7.13
2023-03-19T01:42:08.558Z,4.65
2023-03-19T01:45:24.768Z,6.05
2023-03-19T01:48:36.600Z,3.75
2023-03-19T01:51:10.619Z,9.00
2023-03-19T01:54:00.501Z,6.45
2023-03-19T01:56:40.037Z,3.40
2023-03-19T01:59:42.020Z,8.50
2023-03-19T02:02:21.313Z,5.63
2023-03-19T02:04:53.778Z,4.55
2023-03-19T02:07:21.557Z,4.75
2023-03-19T02:09:48.857Z,4.60
2023-03-19T02:12:17.411Z,4.43
2023-03-19T02:14:44.284Z,5.65
2023-03-19T02:17:12.307Z,6.18
2023-03-19T02:20:02.372Z,4.80
2023-03-19T02:22:31.209Z,5.45
2023-03-19T02:25:25.014Z,4.13
2023-03-19T02:30:28.586Z,5.82
2023-03-19T02:32:56.792Z,6.53
2023-03-19T02:35:24.689Z,6.63
2023-03-19T02:37:51.565Z,6.65
2023-03-19T02:40:24.888Z,8.68
2023-03-19T02:42:51.904Z,5.25
2023-03-19T02:45:18.869Z,4.18
2023-03-19T02:47:45.646Z,5.70
2023-03-19T02:50:12.867Z,6.55
2023-03-19T02:52:39.738Z,5.30
2023-03-19T02:55:07.981Z,5.40
2023-03-19T02:57:35.438Z,5.07
2023-03-19T03:00:02.730Z,4.97
2023-03-19T03:02:29.854Z,7.28
2023-03-19T03:04:56.911Z,7.22
2023-03-19T03:07:25.769Z,6.90
2023-03-19T03:09:52.757Z,5.53
2023-03-19T03:12:19.942Z,5.43
2023-03-19T03:14:47.057Z,4.95
2023-03-19T03:17:14.320Z,5.68
2023-03-19T03:19:41.197Z,4.47
2023-03-19T03:22:08.490Z,7.85
2023-03-19T03:24:35.429Z,4.60
2023-03-19T03:27:02.389Z,5.00
2023-03-19T03:29:29.259Z,7.28
2023-03-19T03:31:56.590Z,6.78
2023-03-19T03:34:23.446Z,7.53
2023-03-19T03:36:50.879Z,5.00
2023-03-19T03:39:19.035Z,5.32
2023-03-19T03:41:46.474Z,6.32
2023-03-19T03:44:14.360Z,4.93
2023-03-19T03:46:43.404Z,6.60
2023-03-19T03:49:10.859Z,6.47
2023-03-19T03:51:37.767Z,6.85
2023-03-19T03:54:04.662Z,3.75
2023-03-19T03:56:33.236Z,4.28
2023-03-19T03:59:01.165Z,4.32
2023-03-19T04:01:28.031Z,3.78
2023-03-19T04:03:56.706Z,6.43
2023-03-19T04:06:24.939Z,5.45
2023-03-19T04:09:12.033Z,3.88
2023-03-19T04:11:41.182Z,5.93
2023-03-19T04:14:08.638Z,5.20
2023-03-19T04:16:38.277Z,3.85
2023-03-19T04:19:05.233Z,5.25
2023-03-19T04:21:32.048Z,3.80
2023-03-19T04:23:58.979Z,4.57
2023-03-19T04:26:26.371Z,5.30
2023-03-19T04:28:53.194Z,4.60
2023-03-19T04:31:20.015Z,4.63
2023-03-19T04:33:46.799Z,3.92
2023-03-19T04:36:13.627Z,5.55
2023-03-19T04:38:41.568Z,3.08
2023-03-19T04:41:08.987Z,5.15
2023-03-19T04:43:39.223Z,5.05
2023-03-19T04:46:08.116Z,4.10
2023-03-19T04:48:37.750Z,7.38
2023-03-19T04:51:05.076Z,4.55
2023-03-19T04:53:32.990Z,5.07
2023-03-19T04:55:59.887Z,4.28
2023-03-19T04:58:27.557Z,5.60
2023-03-19T05:03:47.272Z,3.58
2023-03-19T05:06:14.330Z,5.45
2023-03-19T05:08:41.618Z,6.57
2023-03-19T05:11:08.564Z,4.53
2023-03-19T05:13:49.364Z,4.13
2023-03-19T05:16:16.727Z,5.20
2023-03-19T05:18:43.742Z,5.32
2023-03-19T05:21:12.790Z,4.60
2023-03-19T05:23:40.238Z,3.42
2023-03-19T05:26:10.004Z,4.30
2023-03-19T05:29:11.992Z,4.18
2023-03-19T05:32:08.589Z,4.13
2023-03-19T05:34:35.999Z,3.92
2023-03-19T05:37:03.054Z,5.32
2023-03-19T05:39:30.568Z,4.53
2023-03-19T05:42:01.940Z,5.53
2023-03-19T05:44:30.407Z,4.55
2023-03-19T05:47:02.120Z,3.80
2023-03-19T05:49:32.560Z,4.72
2023-03-19T05:51:59.419Z,5.38
2023-03-19T05:54:26.239Z,5.30
2023-03-19T05:57:05.535Z,4.15
2023-03-19T05:59:32.337Z,6.15
2023-03-19T06:02:13.683Z,4.30
2023-03-19T06:04:40.816Z,3.40
2023-03-19T06:07:08.190Z,4.60
2023-03-19T06:09:36.789Z,4.25
2023-03-19T06:12:04.061Z,6.30
2023-03-19T06:14:50.073Z,4.35
2023-03-19T06:17:36.150Z,4.50
2023-03-19T06:20:07.691Z,4.88
2023-03-19T06:22:34.621Z,4.95
2023-03-19T06:25:01.479Z,6.35
2023-03-19T06:27:30.694Z,4.35
2023-03-19T06:30:09.872Z,4.40
2023-03-19T06:32:37.293Z,6.03
2023-03-19T06:35:09.539Z,4.50
2023-03-19T06:37:37.595Z,5.72
2023-03-19T06:40:05.578Z,4.63
2023-03-19T06:42:32.402Z,3.70
2023-03-19T06:44:59.370Z,3.75
2023-03-19T06:47:26.433Z,4.47
2023-03-19T06:49:53.250Z,3.78
2023-03-19T06:52:19.994Z,4.93
2023-03-19T06:54:47.094Z,3.90
2023-03-19T06:57:13.948Z,4.43
2023-03-19T06:59:41.094Z,3.70
2023-03-19T07:02:11.808Z,4.45
2023-03-19T07:04:38.617Z,4.00
2023-03-19T07:07:06.010Z,2.83
2023-03-19T07:09:33.013Z,8.85
2023-03-19T07:11:59.857Z,3.75
2023-03-19T07:14:26.804Z,4.10
2023-03-19T07:16:53.682Z,4.82
2023-03-19T07:19:20.752Z,4.07
2023-03-19T07:21:47.584Z,3.55
2023-03-19T07:24:14.504Z,3.55
2023-03-19T07:26:42.411Z,4.05
2023-03-19T07:29:09.760Z,4.10
2023-03-19T07:31:37.016Z,2.53
2023-03-19T07:34:04.282Z,2.97
2023-03-19T07:36:31.294Z,3.05
2023-03-19T07:38:58.130Z,2.97
2023-03-19T07:41:25.810Z,3.35
2023-03-19T07:43:52.631Z,6.88
2023-03-19T07:46:19.578Z,4.63
2023-03-19T07:48:46.624Z,6.80
2023-03-19T07:51:13.565Z,3.92
2023-03-19T07:53:40.539Z,2.70
2023-03-19T07:56:07.715Z,2.83
2023-03-19T07:58:34.510Z,3.35
2023-03-19T08:01:01.351Z,3.13
2023-03-19T08:03:29.166Z,4.00
2023-03-19T08:05:56.016Z,4.45
2023-03-19T08:08:25.892Z,4.20
2023-03-19T08:10:56.286Z,3.00
2023-03-19T08:13:23.043Z,3.88
2023-03-19T08:15:51.268Z,2.85
2023-03-19T08:18:18.134Z,3.28
2023-03-19T08:20:46.017Z,3.80
2023-03-19T08:23:13.589Z,4.25
2023-03-19T08:25:40.973Z,3.58
2023-03-19T08:28:09.817Z,2.33
2023-03-19T08:30:38.093Z,2.17
2023-03-19T08:33:06.024Z,2.63
2023-03-19T08:35:32.936Z,2.55
2023-03-19T08:37:59.713Z,2.70
2023-03-19T08:40:26.759Z,2.83
2023-03-19T08:42:54.503Z,4.85
2023-03-19T08:45:22.249Z,3.72
2023-03-19T08:47:49.843Z,2.95
2023-03-19T08:50:17.477Z,1.75
2023-03-19T08:52:44.600Z,3.75
2023-03-19T08:55:11.682Z,4.78
2023-03-19T08:57:38.535Z,8.70
2023-03-19T09:00:06.040Z,3.67
2023-03-19T09:02:32.846Z,3.13
2023-03-19T09:04:59.691Z,2.28
2023-03-19T09:07:26.547Z,3.55
2023-03-19T09:09:53.431Z,3.50
2023-03-19T09:12:20.556Z,3.72
2023-03-19T09:14:47.385Z,2.33
2023-03-19T09:17:15.470Z,4.78
2023-03-19T09:19:42.496Z,2.67
2023-03-19T09:22:09.332Z,3.58
2023-03-19T09:24:38.199Z,5.85
2023-03-19T09:27:06.368Z,5.03
2023-03-19T09:29:33.204Z,3.47
2023-03-19T09:32:00.761Z,3.08
2023-03-19T09:34:27.830Z,2.17
2023-03-19T09:36:54.614Z,2.38
2023-03-19T09:39:21.527Z,5.95
2023-03-19T09:42:04.401Z,3.33
2023-03-19T09:44:35.496Z,4.40
2023-03-19T09:47:21.246Z,2.53
2023-03-19T09:49:49.159Z,5.78
2023-03-19T09:53:17.543Z,2.03
2023-03-19T09:55:47.993Z,2.25
2023-03-19T09:58:19.426Z,2.97
2023-03-19T10:00:54.097Z,4.45
2023-03-19T10:03:37.044Z,3.35
2023-03-19T10:06:22.249Z,4.00
2023-03-19T10:08:53.316Z,3.08
2023-03-19T10:11:50.734Z,3.97
2023-03-19T10:14:26.550Z,4.05
2023-03-19T10:16:57.269Z,2.80
2023-03-19T10:19:47.397Z,4.40
2023-03-19T10:22:24.032Z,6.25
2023-03-19T10:24:53.570Z,3.30
2023-03-19T10:27:22.860Z,4.68
2023-03-19T10:29:49.696Z,3.63
2023-03-19T10:32:19.710Z,3.00
2023-03-19T10:34:53.867Z,5.55
2023-03-19T10:37:24.118Z,4.40
2023-03-19T10:39:53.200Z,3.25
2023-03-19T10:42:57.708Z,4.40
2023-03-19T10:45:29.100Z,4.32
2023-03-19T10:47:57.100Z,3.67
2023-03-19T10:50:45.701Z,5.32
2023-03-19T10:53:15.468Z,2.22
2023-03-19T10:55:53.969Z,2.85
2023-03-19T10:58:25.241Z,6.35
2023-03-19T11:01:06.164Z,5.18
2023-03-19T11:03:49.319Z,4.88
2023-03-19T11:06:34.973Z,3.45
2023-03-19T11:09:14.101Z,3.67
2023-03-19T11:11:53.636Z,3.88
2023-03-19T11:15:38.141Z,4.47
2023-03-19T11:18:01.248Z,2.67
2023-03-19T11:20:32.651Z,1.98
2023-03-19T11:23:02.823Z,3.80
2023-03-19T11:25:42.182Z,4.80
2023-03-19T11:28:21.021Z,3.08
2023-03-19T11:31:07.227Z,4.60
2023-03-19T11:33:47.356Z,4.75
2023-03-19T11:36:39.539Z,3.10
2023-03-19T11:39:30.500Z,5.40
2023-03-19T11:42:16.155Z,3.10
2023-03-19T11:45:04.753Z,6.65
2023-03-19T11:47:50.369Z,4.75
2023-03-19T11:50:30.429Z,4.13
2023-03-19T11:53:13.086Z,4.13
2023-03-19T11:56:13.647Z,4.80
2023-03-19T11:59:12.959Z,4.70
2023-03-19T12:02:26.010Z,5.53
2023-03-19T12:05:14.566Z,3.85
2023-03-19T12:07:49.707Z,5.75
2023-03-19T12:10:42.212Z,2.75
2023-03-19T12:13:18.179Z,5.20
2023-03-19T12:16:10.304Z,4.80
2023-03-19T12:18:59.821Z,3.92
2023-03-19T12:21:40.504Z,4.05
2023-03-19T12:24:32.386Z,5.10
2023-03-19T12:27:17.300Z,4.25
2023-03-19T12:29:52.302Z,4.47
2023-03-19T12:32:32.485Z,2.90
2023-03-19T12:35:04.469Z,2.83
2023-03-19T12:38:08.336Z,3.63
2023-03-19T12:41:03.763Z,4.10
2023-03-19T12:43:56.786Z,5.70
2023-03-19T12:46:29.161Z,4.63
2023-03-19T12:49:14.683Z,6.63
2023-03-19T12:51:46.383Z,4.15
2023-03-19T12:54:37.089Z,3.10
2023-03-19T12:57:47.707Z,3.80
2023-03-19T13:00:46.108Z,3.72
2023-03-19T13:03:20.686Z,2.10
2023-03-19T13:06:08.559Z,3.30
2023-03-19T13:09:07.981Z,4.00
2023-03-19T13:11:39.577Z,3.88
2023-03-19T13:14:26.706Z,3.95
2023-03-19T13:17:01.962Z,2.53
2023-03-19T13:19:45.369Z,4.15
2023-03-19T13:22:19.754Z,3.45
2023-03-19T13:24:48.718Z,3.42
2023-03-19T13:27:23.268Z,6.93
2023-03-19T13:30:18.264Z,3.70
2023-03-19T13:32:48.919Z,2.90
2023-03-19T13:35:31.704Z,4.97
2023-03-19T13:38:03.426Z,4.40
2023-03-19T13:40:42.773Z,4.65
2023-03-19T13:43:28.660Z,4.80
2023-03-19T13:46:24.804Z,5.20
2023-03-19T13:48:53.671Z,3.40
2023-03-19T13:51:23.679Z,6.57
2023-03-19T13:53:54.966Z,6.00
2023-03-19T13:56:30.056Z,3.92
2023-03-19T13:59:27.663Z,5.07
2023-03-19T14:01:55.518Z,5.00
2023-03-19T14:04:25.664Z,4.35
2023-03-19T14:06:56.845Z,4.68
2023-03-19T14:09:32.664Z,3.13
2023-03-19T14:12:18.248Z,4.60
2023-03-19T14:14:47.286Z,3.38
2023-03-19T14:17:28.726Z,2.50
2023-03-19T14:19:56.245Z,2.55
2023-03-19T14:22:59.044Z,5.38
2023-03-19T14:25:28.665Z,3.25
2023-03-19T14:28:00.580Z,3.03
2023-03-19T14:30:37.843Z,4.28
2023-03-19T14:33:15.022Z,5.55
2023-03-19T14:35:45.076Z,5.32
2023-03-19T14:38:35.448Z,5.88
2023-03-19T14:41:04.364Z,3.95
2023-03-19T14:43:50.579Z,3.72
2023-03-19T14:46:42.493Z,6.32
2023-03-19T14:49:31.505Z,2.65
2023-03-19T14:52:01.074Z,5.45
2023-03-19T14:54:49.342Z,4.53
2023-03-19T14:57:22.385Z,3.15
2023-03-19T14:59:50.410Z,5.05
2023-03-19T15:02:35.716Z,3.45
2023-03-19T15:05:33.226Z,3.47
2023-03-19T15:08:06.790Z,4.25
2023-03-19T15:11:11.715Z,3.25
2023-03-19T15:13:57.323Z,3.08
2023-03-19T15:16:37.713Z,2.55
2023-03-19T15:19:11.778Z,3.65
2023-03-19T15:21:39.542Z,2.92
2023-03-19T15:24:14.080Z,4.18
2023-03-19T15:26:40.964Z,3.90
2023-03-19T15:29:12.049Z,3.30
2023-03-19T15:31:52.887Z,2.38
2023-03-19T15:34:30.054Z,8.43
2023-03-19T15:37:05.303Z,3.20
2023-03-19T15:39:36.532Z,2.45
2023-03-19T15:42:04.485Z,4.35
2023-03-19T15:44:42.927Z,6.03
2023-03-19T15:47:13.923Z,3.58
2023-03-19T15:50:03.508Z,4.43
2023-03-19T15:52:37.532Z,4.22
2023-03-19T15:55:05.562Z,4.25
2023-03-19T15:57:35.386Z,6.22
2023-03-19T16:00:03.184Z,2.75
2023-03-19T16:02:45.836Z,4.40
2023-03-19T16:05:27.884Z,5.25
2023-03-19T16:08:02.478Z,5.20
2023-03-19T16:10:33.970Z,3.70
2023-03-19T16:13:05.587Z,5.22
2023-03-19T16:15:47.277Z,6.80
2023-03-19T16:18:17.354Z,8.30
2023-03-19T16:20:48.538Z,4.03
2023-03-19T16:23:18.462Z,4.47
2023-03-19T16:25:46.534Z,7.05
2023-03-19T16:28:20.443Z,5.70
2023-03-19T16:30:48.761Z,5.03
2023-03-19T16:33:15.924Z,4.55
2023-03-19T16:35:44.783Z,5.97
2023-03-19T16:38:14.888Z,4.68
2023-03-19T16:40:47.046Z,7.10
2023-03-19T16:43:25.163Z,8.60
2023-03-19T16:46:13.048Z,6.65
2023-03-19T16:48:40.148Z,5.28
2023-03-19T16:51:18.099Z,5.43
2023-03-19T16:53:46.118Z,5.07
2023-03-19T16:56:15.589Z,7.80
2023-03-19T16:58:45.634Z,6.85
2023-03-19T17:01:24.670Z,4.63
2023-03-19T17:03:52.395Z,10.57
2023-03-19T17:06:21.148Z,9.88
2023-03-19T17:08:48.336Z,6.15
2023-03-19T17:11:25.424Z,4.80
2023-03-19T17:13:53.747Z,4.13
2023-03-19T17:16:21.293Z,5.82
2023-03-19T17:18:48.418Z,4.57
2023-03-19T17:21:23.209Z,4.43
2023-03-19T17:23:50.468Z,4.88
2023-03-19T17:26:25.811Z,5.30
2023-03-19T17:28:53.767Z,3.35
2023-03-19T17:31:29.705Z,2.65
2023-03-19T17:34:03.624Z,2.85
2023-03-19T17:36:30.947Z,3.53
2023-03-19T17:38:57.912Z,4.75
2023-03-19T17:41:24.833Z,8.02
2023-03-19T17:43:52.335Z,18.52
2023-03-19T17:46:22.365Z,10.82
2023-03-19T17:48:51.293Z,17.65
2023-03-19T17:51:19.173Z,11.00
2023-03-19T17:53:52.971Z,4.28
2023-03-19T17:56:22.783Z,5.55
2023-03-19T17:58:50.506Z,3.45
2023-03-19T18:01:23.378Z,4.32
2023-03-19T18:03:51.263Z,3.58
2023-03-19T18:06:20.894Z,4.63
2023-03-19T18:08:48.059Z,2.85
2023-03-19T18:11:15.240Z,4.32
2023-03-19T18:13:42.708Z,4.10
2023-03-19T18:16:29.188Z,4.55
2023-03-19T18:18:58.771Z,4.40
2023-03-19T18:21:27.257Z,9.15
2023-03-19T18:23:54.518Z,6.40
2023-03-19T18:26:21.313Z,3.63
2023-03-19T18:28:48.117Z,4.35
2023-03-19T18:31:25.201Z,4.78
2023-03-19T18:33:56.327Z,4.47
2023-03-19T18:36:26.798Z,4.82
2023-03-19T18:38:55.125Z,3.75
2023-03-19T18:41:23.789Z,3.15
2023-03-19T18:44:04.601Z,2.45
2023-03-19T18:46:33.126Z,2.83
2023-03-19T18:49:02.907Z,4.97
2023-03-19T18:51:30.351Z,7.07
2023-03-19T18:53:57.529Z,25.23
2023-03-19T18:56:34.406Z,7.95
2023-03-19T18:59:03.239Z,5.47
2023-03-19T19:01:30.316Z,7.78
2023-03-19T19:03:57.269Z,7.00
2023-03-19T19:06:40.338Z,6.45
2023-03-19T19:09:13.843Z,5.88
2023-03-19T19:11:44.146Z,4.75
2023-03-19T19:14:23.414Z,6.32
2023-03-19T19:16:51.291Z,6.53
2023-03-19T19:19:22.595Z,5.10
2023-03-19T19:21:50.572Z,4.65
2023-03-19T19:24:17.786Z,4.15
2023-03-19T19:26:46.473Z,4.47
2023-03-19T19:29:23.660Z,3.28
2023-03-19T19:31:50.807Z,2.80
2023-03-19T19:34:17.662Z,3.58
2023-03-19T19:36:44.429Z,3.85
2023-03-19T19:39:11.526Z,5.75
2023-03-19T19:41:39.480Z,3.35
2023-03-19T19:44:07.065Z,4.40
2023-03-19T19:46:34.081Z,3.45
2023-03-19T19:49:01.274Z,5.57
2023-03-19T19:51:29.499Z,5.50
2023-03-19T19:53:56.346Z,4.85
2023-03-19T19:56:26.787Z,4.53
2023-03-19T19:58:55.699Z,6.53
2023-03-19T20:01:25.297Z,5.55
2023-03-19T20:03:53.378Z,5.60
2023-03-19T20:06:20.405Z,4.90
2023-03-19T20:08:50.684Z,4.57
2023-03-19T20:11:18.846Z,4.75
2023-03-19T20:13:53.566Z,5.75
2023-03-19T20:16:22.388Z,4.80
2023-03-19T20:18:51.065Z,3.95
2023-03-19T20:21:17.857Z,5.55
2023-03-19T20:23:45.229Z,7.30
2023-03-19T20:26:17.501Z,5.47
2023-03-19T20:28:45.371Z,8.53
2023-03-19T20:31:25.276Z,4.93
2023-03-19T20:33:52.079Z,6.53
2023-03-19T20:36:19.587Z,7.38
2023-03-19T20:38:46.620Z,6.63
2023-03-19T20:41:20.971Z,5.30
2023-03-19T20:43:49.066Z,6.88
2023-03-19T20:46:18.736Z,5.80
2023-03-19T20:48:45.771Z,8.55
2023-03-19T20:51:22.583Z,7.40
2023-03-19T20:53:51.466Z,13.45
2023-03-19T20:56:21.867Z,16.73
2023-03-19T20:58:48.871Z,18.63
2023-03-19T21:01:16.748Z,20.52
2023-03-19T21:03:43.902Z,14.65
2023-03-19T21:06:15.473Z,12.57
2023-03-19T21:08:48.543Z,9.10
2023-03-19T21:11:20.659Z,7.10
2023-03-19T21:13:49.116Z,6.65
2023-03-19T21:16:25.057Z,3.85
2023-03-19T21:18:53.873Z,4.18
2023-03-19T21:21:29.721Z,7.88
2023-03-19T21:24:00.605Z,7.00
2023-03-19T21:26:27.563Z,12.40
2023-03-19T21:29:00.274Z,6.05
2023-03-19T21:31:27.270Z,7.50
2023-03-19T21:33:56.444Z,5.30
2023-03-19T21:36:24.655Z,5.80
2023-03-19T21:38:52.540Z,3.95
2023-03-19T21:41:26.523Z,7.25
2023-03-19T21:43:56.241Z,5.70
2023-03-19T21:46:29.553Z,5.00
2023-03-19T21:48:58.207Z,5.22
2023-03-19T21:51:27.319Z,4.88
2023-03-19T21:53:54.261Z,4.75
2023-03-19T21:56:24.123Z,5.25
2023-03-19T21:58:52.701Z,4.32
2023-03-19T22:01:24.916Z,6.40
2023-03-19T22:03:53.515Z,5.60
2023-03-19T22:06:21.988Z,4.72
2023-03-19T22:08:49.238Z,6.30
2023-03-19T22:11:23.106Z,5.80
2023-03-19T22:13:50.009Z,6.28
2023-03-19T22:16:19.859Z,4.70
2023-03-19T22:18:47.790Z,5.57
2023-03-19T22:21:16.516Z,5.55
2023-03-19T22:23:46.658Z,7.60
2023-03-19T22:26:34.018Z,7.70
2023-03-19T22:29:14.406Z,7.03
2023-03-19T22:31:41.875Z,7.15
2023-03-19T22:34:17.172Z,5.90
2023-03-19T22:36:44.715Z,4.82
2023-03-19T22:39:12.022Z,5.32
2023-03-19T22:41:43.793Z,4.18
2023-03-19T22:44:26.578Z,4.97
2023-03-19T22:46:55.318Z,5.07
2023-03-19T22:49:22.370Z,5.45
2023-03-19T22:51:49.128Z,3.55
2023-03-19T22:54:16.327Z,4.32
2023-03-19T22:56:43.408Z,3.53
2023-03-19T22:59:10.280Z,3.38
2023-03-19T23:01:42.020Z,3.83
2023-03-19T23:04:17.745Z,3.42
2023-03-19T23:06:44.650Z,5.32
2023-03-19T23:09:16.862Z,3.00
2023-03-19T23:11:44.021Z,2.90
2023-03-19T23:14:26.029Z,4.30
2023-03-19T23:19:30.404Z,4.93
2023-03-19T23:21:58.924Z,4.43
2023-03-19T23:24:26.619Z,4.07
2023-03-19T23:26:55.638Z,3.53
2023-03-19T23:29:43.971Z,3.45
2023-03-19T23:32:11.510Z,3.38
2023-03-19T23:34:54.155Z,3.22
2023-03-19T23:37:25.002Z,3.60
2023-03-19T23:39:51.910Z,4.43
2023-03-19T23:42:30.030Z,4.47
2023-03-19T23:45:01.282Z,3.75
2023-03-19T23:47:29.618Z,2.85
2023-03-19T23:49:56.979Z,2.97
2023-03-19T23:52:23.731Z,2.75
2023-03-19T23:54:50.896Z,4.30
2023-03-19T23:57:17.739Z,4.63
2023-03-19T23:59:49.724Z,2.35
